Terminal Aerodrome Forecast
Issued by NWS

Home | Current Version | Previous Version | Text Only | Print | Product List | Glossary On
Versions: 1 2 3 4 5 6 7 8 9 10 11 12 13 14
439
FTPA31 PHFO 192320
TAFHTO
TAF
PHTO 192320Z 2000/2024 03011KT P6SM VCSH SCT025 SCT045
     FM200600 33007KT P6SM VCSH SCT025 BKN045
     FM201200 27007KT P6SM VCSH SCT020 BKN035
     FM202000 02011KT P6SM VCSH SCT025 BKN045=

USA.gov is the U.S. government's official web portal to all federal, state and local government web resources and services.